logo
Search for airport 
image banner adimage banner adimage banner ad
image banner ad

MMCEO - El Crucero

Located in Cajeme, Mexico

ICAO - , IATA -

Data provided by Airmate  

General information

Coordinates: N27°24'26" W109°55'39"
Elevation is 114 feet MSL.
Magnetic variation is 8° East
View others Airports in Sonora

Operational data

Special qualification required
Current time UTC:
Current local time:
METAR: MMCN 172342Z 27013KT 7SM SKC 33/M03 A2970 RMK SLP058 HZY
TAF: TAF MMCN 171644Z 1718/1818 26008KT P6SM SKC BECMG 1720/1721 26015KT FM180300 26005KT 6SM HZ SKC FM181800 26010KT P6SM SKC
View NOTAMs / SUP AIP / TFR affecting this airport [VIEW]
Communications frequencies: [VIEW]

Runways:

RWY identifierQFULength (ft)Width (ft)SurfaceLDA (ft)
26270°315522DIRT
0890°315522DIRT

Airport contact information

Address: Cajeme Mexico

Satellite view of MMCEO